createdAt,value
2018-05-04T00:02:26.857Z,10.00
2018-05-04T00:04:54.366Z,9.90
2018-05-04T00:07:21.853Z,9.80
2018-05-04T00:09:49.376Z,9.80
2018-05-04T00:12:17.640Z,9.80
2018-05-04T00:14:45.952Z,9.80
2018-05-04T00:17:13.482Z,9.80
2018-05-04T00:19:41.766Z,9.70
2018-05-04T00:22:09.313Z,9.70
2018-05-04T00:24:36.811Z,9.80
2018-05-04T00:27:04.328Z,9.70
2018-05-04T00:29:31.804Z,9.60
2018-05-04T00:32:00.081Z,9.60
2018-05-04T00:34:28.348Z,9.50
2018-05-04T00:36:55.894Z,9.50
2018-05-04T00:39:23.788Z,9.60
2018-05-04T00:41:51.419Z,9.60
2018-05-04T00:44:18.927Z,9.60
2018-05-04T00:46:46.430Z,9.60
2018-05-04T00:49:13.961Z,9.40
2018-05-04T00:51:41.468Z,9.40
2018-05-04T00:54:20.822Z,9.40
2018-05-04T00:56:49.092Z,9.50
2018-05-04T00:59:16.582Z,9.50
2018-05-04T01:01:44.167Z,9.30
2018-05-04T01:04:11.650Z,9.00
2018-05-04T01:06:39.296Z,8.90
2018-05-04T01:09:06.829Z,8.80
2018-05-04T01:11:34.307Z,8.70
2018-05-04T01:14:01.793Z,8.60
2018-05-04T01:16:29.417Z,8.70
2018-05-04T01:18:56.918Z,8.60
2018-05-04T01:21:24.456Z,8.60
2018-05-04T01:23:51.994Z,8.60
2018-05-04T01:26:19.502Z,8.70
2018-05-04T01:28:47.014Z,8.70
2018-05-04T01:31:16.518Z,8.80
2018-05-04T01:33:44.017Z,8.70
2018-05-04T01:36:11.557Z,8.80
2018-05-04T01:38:39.503Z,8.80
2018-05-04T01:41:07.092Z,8.80
2018-05-04T01:43:34.591Z,8.70
2018-05-04T01:46:02.061Z,8.80
2018-05-04T01:48:30.372Z,8.80
2018-05-04T01:50:57.868Z,8.80
2018-05-04T01:53:26.232Z,8.70
2018-05-04T01:55:53.733Z,8.80
2018-05-04T01:58:22.052Z,8.80
2018-05-04T02:00:49.569Z,8.80
2018-05-04T02:03:17.056Z,8.60
2018-05-04T02:05:44.590Z,8.40
2018-05-04T02:08:12.837Z,8.40
2018-05-04T02:10:40.361Z,8.40
2018-05-04T02:13:07.842Z,8.30
2018-05-04T02:15:35.369Z,8.30
2018-05-04T02:18:02.967Z,8.20
2018-05-04T02:20:30.449Z,8.20
2018-05-04T02:22:57.959Z,8.30
2018-05-04T02:25:25.438Z,8.30
2018-05-04T02:27:52.980Z,8.40
2018-05-04T02:30:20.465Z,8.40
2018-05-04T02:32:47.993Z,8.30
2018-05-04T02:35:15.495Z,8.20
2018-05-04T02:37:43.050Z,8.20
2018-05-04T02:40:10.584Z,8.00
2018-05-04T02:42:38.133Z,7.90
2018-05-04T02:45:05.682Z,7.90
2018-05-04T02:47:33.944Z,8.10
2018-05-04T02:50:02.218Z,8.10
2018-05-04T02:52:30.498Z,8.00
2018-05-04T02:54:58.818Z,8.10
2018-05-04T02:57:26.337Z,8.00
2018-05-04T02:59:54.599Z,7.90
2018-05-04T03:02:22.419Z,7.90
2018-05-04T03:04:49.940Z,7.80
2018-05-04T03:07:18.222Z,7.70
2018-05-04T03:09:46.518Z,7.60
2018-05-04T03:12:14.051Z,7.60
2018-05-04T03:14:41.938Z,7.60
2018-05-04T03:17:10.187Z,7.60
2018-05-04T03:19:37.674Z,7.60
2018-05-04T03:22:05.964Z,7.80
2018-05-04T03:24:33.467Z,7.70
2018-05-04T03:27:01.174Z,7.70
2018-05-04T03:29:29.433Z,7.80
2018-05-04T03:31:56.961Z,7.80
2018-05-04T03:34:24.978Z,7.70
2018-05-04T03:36:53.253Z,7.60
2018-05-04T03:39:21.534Z,7.60
2018-05-04T03:41:49.778Z,7.70
2018-05-04T03:44:17.270Z,7.70
2018-05-04T03:46:45.537Z,7.80
2018-05-04T03:49:13.026Z,7.80
2018-05-04T03:51:40.604Z,7.90
2018-05-04T03:54:08.148Z,7.90
2018-05-04T03:56:35.751Z,7.90
2018-05-04T03:59:15.220Z,7.80
2018-05-04T04:01:54.494Z,7.70
2018-05-04T04:04:22.082Z,7.60
2018-05-04T04:06:49.599Z,7.50
2018-05-04T04:09:17.465Z,7.40
2018-05-04T04:11:45.765Z,7.50
2018-05-04T04:14:13.431Z,7.50
2018-05-04T04:16:40.968Z,7.60
2018-05-04T04:19:08.465Z,7.50
2018-05-04T04:21:36.019Z,7.50
2018-05-04T04:24:03.555Z,7.60
2018-05-04T04:26:31.061Z,7.60
2018-05-04T04:28:58.587Z,7.70
2018-05-04T04:31:26.088Z,7.80
2018-05-04T04:33:53.596Z,7.80
2018-05-04T04:36:21.083Z,7.90
2018-05-04T04:38:48.651Z,7.90
2018-05-04T04:41:16.101Z,7.80
2018-05-04T04:43:43.620Z,7.80
2018-05-04T04:46:11.889Z,7.90
2018-05-04T04:48:40.174Z,7.90
2018-05-04T04:51:07.729Z,7.90
2018-05-04T04:53:35.980Z,8.00
2018-05-04T04:56:03.477Z,7.90
2018-05-04T04:58:31.750Z,8.10
2018-05-04T05:01:00.014Z,8.10
2018-05-04T05:03:28.299Z,8.10
2018-05-04T05:05:56.568Z,8.10
2018-05-04T05:08:24.874Z,8.20
2018-05-04T05:10:52.357Z,8.20
2018-05-04T05:13:19.880Z,8.30
2018-05-04T05:15:48.153Z,8.50
2018-05-04T05:18:16.398Z,8.50
2018-05-04T05:20:44.717Z,8.60
2018-05-04T05:23:12.976Z,8.70
2018-05-04T05:25:40.519Z,8.70
2018-05-04T05:28:08.018Z,8.80
2018-05-04T05:30:36.297Z,8.80
2018-05-04T05:33:04.567Z,8.90
2018-05-04T05:35:32.859Z,9.00
2018-05-04T05:38:00.361Z,9.00
2018-05-04T05:40:27.853Z,9.10
2018-05-04T05:42:56.123Z,9.20
2018-05-04T05:45:23.624Z,9.20
2018-05-04T05:47:51.258Z,9.30
2018-05-04T05:50:19.539Z,9.40
2018-05-04T05:52:47.910Z,9.40
2018-05-04T05:55:16.171Z,9.50
2018-05-04T05:57:43.668Z,9.40
2018-05-04T06:00:11.173Z,9.50
2018-05-04T06:02:38.756Z,9.60
2018-05-04T06:05:06.264Z,9.60
2018-05-04T06:07:33.808Z,9.60
2018-05-04T06:10:01.426Z,9.60
2018-05-04T06:12:29.053Z,9.70
2018-05-04T06:14:56.581Z,9.80
2018-05-04T06:17:24.067Z,9.80
2018-05-04T06:19:51.609Z,9.80
2018-05-04T06:22:19.136Z,9.90
2018-05-04T06:24:46.638Z,9.90
2018-05-04T06:27:14.130Z,10.00
2018-05-04T06:29:42.483Z,10.00
2018-05-04T06:32:10.063Z,10.10
2018-05-04T06:34:38.314Z,10.20
2018-05-04T06:37:05.796Z,10.20
2018-05-04T06:39:33.286Z,10.30
2018-05-04T06:42:00.829Z,10.30
2018-05-04T06:44:28.363Z,10.50
2018-05-04T06:46:55.889Z,10.50
2018-05-04T06:49:24.169Z,10.70
2018-05-04T06:51:52.458Z,10.70
2018-05-04T06:54:19.951Z,10.70
2018-05-04T06:56:47.511Z,10.80
2018-05-04T06:59:15.034Z,10.90
2018-05-04T07:01:43.345Z,11.00
2018-05-04T07:04:10.848Z,11.00
2018-05-04T07:06:38.370Z,11.00
2018-05-04T07:09:05.952Z,11.00
2018-05-04T07:11:33.406Z,11.00
2018-05-04T07:14:00.946Z,11.10
2018-05-04T07:16:28.458Z,11.20
2018-05-04T07:18:56.782Z,11.30
2018-05-04T07:21:24.285Z,11.30
2018-05-04T07:23:51.815Z,11.30
2018-05-04T07:26:19.300Z,11.50
2018-05-04T07:28:47.224Z,11.50
2018-05-04T07:31:14.685Z,11.50
2018-05-04T07:33:42.206Z,11.60
2018-05-04T07:36:10.501Z,11.80
2018-05-04T07:38:38.870Z,11.80
2018-05-04T07:41:07.174Z,11.80
2018-05-04T07:43:34.679Z,11.80
2018-05-04T07:46:02.187Z,11.80
2018-05-04T07:48:29.692Z,11.90
2018-05-04T07:50:57.204Z,12.00
2018-05-04T07:53:24.736Z,11.90
2018-05-04T07:55:53.012Z,12.10
2018-05-04T07:58:21.265Z,12.40
2018-05-04T08:00:49.390Z,12.30
2018-05-04T08:03:16.903Z,12.40
2018-05-04T08:05:44.418Z,12.50
2018-05-04T08:08:12.212Z,12.50
2018-05-04T08:10:39.716Z,12.50
2018-05-04T08:13:08.013Z,12.70
2018-05-04T08:15:35.526Z,12.60
2018-05-04T08:18:03.838Z,12.80
2018-05-04T08:20:32.119Z,13.00
2018-05-04T08:23:00.410Z,13.00
2018-05-04T08:25:27.907Z,13.00
2018-05-04T08:27:55.415Z,13.20
2018-05-04T08:30:23.718Z,13.50
2018-05-04T08:32:51.286Z,13.40
2018-05-04T08:35:18.957Z,13.50
2018-05-04T08:37:46.320Z,13.60
2018-05-04T08:40:13.838Z,13.80
2018-05-04T08:42:42.108Z,14.00
2018-05-04T08:45:10.485Z,14.10
2018-05-04T08:47:38.773Z,14.20
2018-05-04T08:50:07.069Z,14.30
2018-05-04T08:52:34.581Z,14.30
2018-05-04T08:55:02.137Z,14.50
2018-05-04T08:57:29.724Z,14.70
2018-05-04T08:59:57.293Z,14.70
2018-05-04T09:02:25.581Z,14.90
2018-05-04T09:04:53.095Z,14.90
2018-05-04T09:07:20.602Z,14.90
2018-05-04T09:09:48.131Z,14.90
2018-05-04T09:12:16.413Z,14.80
2018-05-04T09:14:44.707Z,14.90
2018-05-04T09:17:13.168Z,14.90
2018-05-04T09:19:40.670Z,14.90
2018-05-04T09:22:08.188Z,14.90
2018-05-04T09:24:35.691Z,15.00
2018-05-04T09:27:03.189Z,15.00
2018-05-04T09:29:30.707Z,15.10
2018-05-04T09:31:58.833Z,15.00
2018-05-04T09:34:26.347Z,14.90
2018-05-04T09:36:53.876Z,14.90
2018-05-04T09:53:38.842Z,14.60
2018-05-04T09:56:07.143Z,14.60
2018-05-04T09:58:34.666Z,14.60
2018-05-04T10:01:02.973Z,14.70
2018-05-04T10:09:13.160Z,14.90
2018-05-04T10:11:40.658Z,15.10
2018-05-04T10:14:08.223Z,15.30
2018-05-04T10:27:58.023Z,14.90
2018-05-04T10:30:25.517Z,14.90
2018-05-04T10:32:53.016Z,14.90
2018-05-04T10:35:20.644Z,14.90
2018-05-04T10:43:30.462Z,15.00
2018-05-04T10:45:57.973Z,15.10
2018-05-04T10:48:26.284Z,15.10
2018-05-04T10:50:53.827Z,15.10
2018-05-04T10:53:21.336Z,15.00
2018-05-04T10:55:48.861Z,15.10
2018-05-04T10:58:16.438Z,15.20
2018-05-04T11:00:43.972Z,15.20
2018-05-04T11:03:11.474Z,15.30
2018-05-04T11:05:38.989Z,15.40
2018-05-04T11:08:06.501Z,15.40
2018-05-04T11:10:34.043Z,15.50
2018-05-04T11:13:01.569Z,15.40
2018-05-04T11:15:29.101Z,15.60
2018-05-04T11:17:56.619Z,15.70
2018-05-04T11:20:24.242Z,15.70
2018-05-04T11:22:51.806Z,15.80
2018-05-04T11:25:19.403Z,15.60
2018-05-04T11:27:46.886Z,15.50
2018-05-04T11:30:14.389Z,15.60
2018-05-04T11:32:41.901Z,15.60
2018-05-04T11:35:09.409Z,15.70
2018-05-04T11:37:36.943Z,15.70
2018-05-04T11:40:05.199Z,15.90
2018-05-04T11:42:32.706Z,15.90
2018-05-04T11:45:00.212Z,15.90
2018-05-04T11:47:27.746Z,15.90
2018-05-04T11:49:55.279Z,16.00
2018-05-04T11:52:23.577Z,16.00
2018-05-04T11:54:51.093Z,15.90
2018-05-04T11:57:18.620Z,15.90
2018-05-04T11:59:46.130Z,15.90
2018-05-04T12:02:14.430Z,16.10
2018-05-04T12:04:41.956Z,16.00
2018-05-04T12:07:09.492Z,16.00
2018-05-04T12:09:36.999Z,16.00
2018-05-04T12:12:04.529Z,16.00
2018-05-04T12:14:32.037Z,16.00
2018-05-04T12:16:59.543Z,16.10
2018-05-04T12:19:27.080Z,16.20
2018-05-04T12:21:54.608Z,16.10
2018-05-04T12:24:22.297Z,16.00
2018-05-04T12:26:49.802Z,16.10
2018-05-04T12:29:18.087Z,16.20
2018-05-04T12:31:46.394Z,16.30
2018-05-04T12:34:13.921Z,16.30
2018-05-04T12:36:42.298Z,16.30
2018-05-04T12:39:10.584Z,16.20
2018-05-04T12:41:38.909Z,16.40
2018-05-04T12:44:06.374Z,16.30
2018-05-04T12:46:33.881Z,16.40
2018-05-04T12:49:02.191Z,16.30
2018-05-04T12:51:29.692Z,16.20
2018-05-04T12:53:57.218Z,16.20
2018-05-04T12:56:24.739Z,16.30
2018-05-04T12:58:52.998Z,16.40
2018-05-04T13:01:20.498Z,16.40
2018-05-04T13:03:48.052Z,16.50
2018-05-04T13:06:15.559Z,16.40
2018-05-04T13:08:43.063Z,16.40
2018-05-04T13:11:11.364Z,16.50
2018-05-04T13:13:38.852Z,16.50
2018-05-04T13:16:06.436Z,16.60
2018-05-04T13:18:33.936Z,16.60
2018-05-04T13:21:01.477Z,16.60
2018-05-04T13:23:29.761Z,16.90
2018-05-04T13:25:58.324Z,17.00
2018-05-04T13:28:25.848Z,16.90
2018-05-04T13:30:53.390Z,17.00
2018-05-04T13:33:20.927Z,16.80
2018-05-04T13:35:49.181Z,16.80
2018-05-04T13:38:16.785Z,16.80
2018-05-04T13:40:44.311Z,16.90
2018-05-04T13:43:12.606Z,16.90
2018-05-04T13:45:40.876Z,17.10
2018-05-04T13:48:09.158Z,17.10
2018-05-04T13:50:37.435Z,17.00
2018-05-04T13:53:05.744Z,17.00
2018-05-04T13:55:33.255Z,17.00
2018-05-04T13:58:00.838Z,17.00
2018-05-04T14:00:28.317Z,17.00
2018-05-04T14:02:55.820Z,17.10
2018-05-04T14:05:23.331Z,17.10
2018-05-04T14:07:50.842Z,17.00
2018-05-04T14:10:18.341Z,17.00
2018-05-04T14:12:45.856Z,17.10
2018-05-04T14:15:13.392Z,17.00
2018-05-04T14:17:40.912Z,17.20
2018-05-04T14:20:09.191Z,17.10
2018-05-04T14:22:37.458Z,17.20
2018-05-04T14:25:05.752Z,17.20
2018-05-04T14:27:33.265Z,17.20
2018-05-04T14:30:00.775Z,17.20
2018-05-04T14:32:28.280Z,17.10
2018-05-04T14:34:55.821Z,17.20
2018-05-04T14:37:23.345Z,17.10
2018-05-04T14:39:51.617Z,17.30
2018-05-04T14:42:19.898Z,17.40
2018-05-04T14:44:48.157Z,17.50
2018-05-04T14:47:15.672Z,17.50
2018-05-04T14:49:43.167Z,17.60
2018-05-04T14:52:10.716Z,17.60
2018-05-04T14:54:38.685Z,17.50
2018-05-04T14:57:06.260Z,17.40
2018-05-04T14:59:33.786Z,17.40
2018-05-04T15:02:01.318Z,17.40
2018-05-04T15:04:28.848Z,17.50
2018-05-04T15:06:56.358Z,17.60
2018-05-04T15:09:23.859Z,17.60
2018-05-04T15:11:51.366Z,17.60
2018-05-04T15:14:18.853Z,17.60
2018-05-04T15:16:46.382Z,17.70
2018-05-04T15:19:14.041Z,17.80
2018-05-04T15:21:41.550Z,17.80
2018-05-04T15:24:09.802Z,17.60
2018-05-04T15:26:37.409Z,17.70
2018-05-04T15:29:05.511Z,17.70
2018-05-04T15:31:33.079Z,17.60
2018-05-04T15:34:00.530Z,17.80
2018-05-04T15:36:28.272Z,17.80
2018-05-04T15:38:56.522Z,17.80
2018-05-04T15:41:24.025Z,17.80
2018-05-04T15:43:52.297Z,17.80
2018-05-04T15:46:20.566Z,18.00
2018-05-04T15:48:54.497Z,18.10
2018-05-04T15:51:27.806Z,18.10
2018-05-04T15:53:55.296Z,18.10
2018-05-04T15:56:22.826Z,18.20
2018-05-04T15:58:50.498Z,18.30
2018-05-04T16:01:18.027Z,18.20
2018-05-04T16:03:46.297Z,18.20
2018-05-04T16:06:14.591Z,18.30
2018-05-04T16:08:42.129Z,18.30
2018-05-04T16:11:10.407Z,18.40
2018-05-04T16:13:38.791Z,18.40
2018-05-04T16:16:06.265Z,18.40
2018-05-04T16:18:33.776Z,18.60
2018-05-04T16:21:01.265Z,18.70
2018-05-04T16:23:29.879Z,18.60
2018-05-04T16:25:57.373Z,18.60
2018-05-04T16:28:24.872Z,18.60
2018-05-04T16:30:53.164Z,18.40
2018-05-04T16:33:20.768Z,18.40
2018-05-04T16:35:48.307Z,18.50
2018-05-04T16:38:15.787Z,18.60
2018-05-04T16:40:43.315Z,18.60
2018-05-04T16:43:10.830Z,18.60
2018-05-04T16:45:38.342Z,18.40
2018-05-04T16:48:11.559Z,18.20
2018-05-04T16:50:39.191Z,18.10
2018-05-04T16:53:06.766Z,18.20
2018-05-04T16:55:34.285Z,18.20
2018-05-04T16:58:02.560Z,18.30
2018-05-04T17:00:30.834Z,18.10
2018-05-04T17:02:58.352Z,18.10
2018-05-04T17:05:25.884Z,18.20
2018-05-04T17:07:53.390Z,18.30
2018-05-04T17:10:20.932Z,18.40
2018-05-04T17:12:48.443Z,18.50
2018-05-04T17:15:16.729Z,18.60
2018-05-04T17:17:45.016Z,18.60
2018-05-04T17:20:12.563Z,18.60
2018-05-04T17:22:40.945Z,18.70
2018-05-04T17:25:09.209Z,18.50
2018-05-04T17:27:36.753Z,18.50
2018-05-04T17:30:04.271Z,18.50
2018-05-04T17:32:31.809Z,18.60
2018-05-04T17:35:00.120Z,18.40
2018-05-04T17:37:27.651Z,18.40
2018-05-04T17:39:55.898Z,18.20
2018-05-04T17:42:23.414Z,18.20
2018-05-04T17:44:50.949Z,18.20
2018-05-04T17:47:18.503Z,18.10
2018-05-04T17:49:46.092Z,18.10
2018-05-04T17:52:13.619Z,18.00
2018-05-04T17:54:41.917Z,17.90
2018-05-04T17:57:09.476Z,17.90
2018-05-04T17:59:36.990Z,17.90
2018-05-04T18:02:05.098Z,17.80
2018-05-04T18:04:33.398Z,17.50
2018-05-04T18:07:00.936Z,17.40
2018-05-04T18:09:29.189Z,17.20
2018-05-04T18:11:56.725Z,17.20
2018-05-04T18:14:24.261Z,17.10
2018-05-04T18:16:51.777Z,16.90
2018-05-04T18:19:20.039Z,16.90
2018-05-04T18:21:47.556Z,17.00
2018-05-04T18:24:15.071Z,16.80
2018-05-04T18:26:42.654Z,16.70
2018-05-04T18:29:10.926Z,16.40
2018-05-04T18:31:39.205Z,16.30
2018-05-04T18:34:07.462Z,16.20
2018-05-04T18:36:35.017Z,16.20
2018-05-04T18:39:03.805Z,16.10
2018-05-04T18:41:31.317Z,16.00
2018-05-04T18:43:58.844Z,16.00
2018-05-04T18:46:27.158Z,15.70
2018-05-04T18:48:54.812Z,15.70
2018-05-04T18:51:22.358Z,15.70
2018-05-04T18:53:50.656Z,15.40
2018-05-04T18:56:18.199Z,15.40
2018-05-04T18:58:46.505Z,15.30
2018-05-04T19:01:14.015Z,15.30
2018-05-04T19:03:41.498Z,15.20
2018-05-04T19:06:09.795Z,15.20
2018-05-04T19:08:37.328Z,15.20
2018-05-04T19:11:05.613Z,15.10
2018-05-04T19:13:34.021Z,15.00
2018-05-04T19:16:01.579Z,15.00
2018-05-04T19:18:29.089Z,14.90
2018-05-04T19:20:57.918Z,14.90
2018-05-04T19:23:25.471Z,14.90
2018-05-04T19:25:53.083Z,14.90
2018-05-04T19:28:20.604Z,14.90
2018-05-04T19:30:48.101Z,14.80
2018-05-04T19:33:15.613Z,14.80
2018-05-04T19:35:43.106Z,14.60
2018-05-04T19:38:10.644Z,14.70
2018-05-04T19:40:38.155Z,14.60
2018-05-04T19:43:05.665Z,14.60
2018-05-04T19:45:33.152Z,14.40
2018-05-04T19:48:00.758Z,14.50
2018-05-04T19:50:29.039Z,14.30
2018-05-04T19:52:57.319Z,14.20
2018-05-04T19:55:25.600Z,14.20
2018-05-04T19:57:53.982Z,14.20
2018-05-04T20:00:22.325Z,14.10
2018-05-04T20:02:49.908Z,14.10
2018-05-04T20:05:18.196Z,14.00
2018-05-04T20:07:46.456Z,14.00
2018-05-04T20:10:13.988Z,14.00
2018-05-04T20:12:41.513Z,13.90
2018-05-04T20:15:09.020Z,13.90
2018-05-04T20:17:36.541Z,14.10
2018-05-04T20:20:04.064Z,14.00
2018-05-04T20:22:32.398Z,14.00
2018-05-04T20:24:59.907Z,14.00
2018-05-04T20:27:27.503Z,14.10
2018-05-04T20:29:55.014Z,13.90
2018-05-04T20:32:22.559Z,14.00
2018-05-04T20:34:50.085Z,14.00
2018-05-04T20:37:17.575Z,14.00
2018-05-04T20:39:45.093Z,13.90
2018-05-04T20:42:12.784Z,13.90
2018-05-04T20:44:40.296Z,13.90
2018-05-04T20:47:08.566Z,13.90
2018-05-04T20:49:36.854Z,13.70
2018-05-04T20:52:05.149Z,13.60
2018-05-04T20:54:33.365Z,13.30
2018-05-04T20:57:00.989Z,13.30
2018-05-04T20:59:28.486Z,13.40
2018-05-04T21:01:56.217Z,13.40
2018-05-04T21:04:23.737Z,13.30
2018-05-04T21:06:51.254Z,13.40
2018-05-04T21:09:18.789Z,13.30
2018-05-04T21:11:46.272Z,13.30
2018-05-04T21:14:13.795Z,13.20
2018-05-04T21:16:42.067Z,13.20
2018-05-04T21:19:10.366Z,13.10
2018-05-04T21:21:37.872Z,13.10
2018-05-04T21:24:05.665Z,13.00
2018-05-04T21:26:34.013Z,12.90
2018-05-04T21:29:01.552Z,12.90
2018-05-04T21:31:29.060Z,12.80
2018-05-04T21:33:57.315Z,12.70
2018-05-04T21:36:24.852Z,12.70
2018-05-04T21:38:52.403Z,12.70
2018-05-04T21:41:20.643Z,12.60
2018-05-04T21:43:48.913Z,12.60
2018-05-04T21:46:17.277Z,12.50
2018-05-04T21:48:44.787Z,12.50
2018-05-04T21:51:12.344Z,12.50
2018-05-04T21:53:39.881Z,12.50
2018-05-04T21:56:08.148Z,12.60
2018-05-04T21:58:36.434Z,12.60
2018-05-04T22:01:04.687Z,12.50
2018-05-04T22:03:32.294Z,12.50
2018-05-04T22:05:59.795Z,12.50
2018-05-04T22:08:27.355Z,12.50
2018-05-04T22:10:54.951Z,12.60
2018-05-04T22:13:23.248Z,12.60
2018-05-04T22:15:50.770Z,12.60
2018-05-04T22:18:18.303Z,12.60
2018-05-04T22:20:45.815Z,12.50
2018-05-04T22:23:14.102Z,12.30
2018-05-04T22:25:43.205Z,12.40
2018-05-04T22:28:10.808Z,12.40
2018-05-04T22:30:41.199Z,12.40
2018-05-04T22:33:08.897Z,12.30
2018-05-04T22:35:37.431Z,12.20
2018-05-04T22:38:05.688Z,12.20
2018-05-04T22:40:33.265Z,12.20
2018-05-04T22:43:01.514Z,12.20
2018-05-04T22:45:29.060Z,12.20
2018-05-04T22:47:56.694Z,12.20
2018-05-04T22:50:24.214Z,12.20
2018-05-04T22:52:51.714Z,12.10
2018-05-04T22:55:19.248Z,12.10
2018-05-04T22:57:47.540Z,12.00
2018-05-04T23:00:18.607Z,12.00
2018-05-04T23:02:46.110Z,12.00
2018-05-04T23:05:13.608Z,12.00
2018-05-04T23:07:41.139Z,11.90
2018-05-04T23:10:09.401Z,11.80
2018-05-04T23:12:36.928Z,11.80
2018-05-04T23:15:04.415Z,11.80
2018-05-04T23:17:32.939Z,11.80
2018-05-04T23:20:00.427Z,11.70
2018-05-04T23:22:46.817Z,11.70
2018-05-04T23:32:08.575Z,11.50
2018-05-04T23:34:36.961Z,11.30
2018-05-04T23:37:04.457Z,11.30
2018-05-04T23:39:32.915Z,11.30
2018-05-04T23:42:00.398Z,11.30
2018-05-04T23:44:27.909Z,11.20
2018-05-04T23:46:55.412Z,11.10
2018-05-04T23:49:22.943Z,11.00
2018-05-04T23:51:50.489Z,11.00
2018-05-04T23:54:18.862Z,10.90
2018-05-04T23:56:47.156Z,10.90
2018-05-04T23:59:14.674Z,10.90
